Time;durP1;ratioP1;P1;durP2;ratioP2;P2;SDS_P1;SDS_P2;PMS_P1;PMS_P2;Temp;Humidity;BMP_temperature;BMP_pressure;BME280_temperature;BME280_humidity;BME280_pressure;Samples;Min_cycle;Max_cycle;Signal;HPM_P1;HPM_P2
2022/06/23 00:01:00;;;;;;;0.77;0.38;;;;;;;16.30;90.69;101250.53;10515172;28;20052;-80
2022/06/23 00:06:06;;;;;;;1.00;0.50;;;;;;;16.24;91.40;101250.47;10524213;28;20040;-80
2022/06/23 00:11:20;;;;;;;0.82;0.80;;;;;;;16.08;91.84;101252.09;10542815;28;20097;-80
2022/06/23 00:16:33;;;;;;;0.22;0.13;;;;;;;16.15;90.82;101243.47;10542466;28;20040;-79
2022/06/23 00:21:37;;;;;;;0.60;0.50;;;;;;;16.10;91.47;101245.19;10475041;28;20392;-80
2022/06/23 00:26:38;;;;;;;0.35;0.30;;;;;;;16.10;91.00;101249.47;10534011;28;20040;-80
2022/06/23 00:31:45;;;;;;;1.50;0.60;;;;;;;15.84;92.08;101247.53;10518023;28;20052;-80
2022/06/23 00:36:50;;;;;;;0.30;0.30;;;;;;;16.02;91.05;101252.88;10541947;28;20044;-79
2022/06/23 00:41:52;;;;;;;0.75;0.57;;;;;;;15.78;92.00;101247.44;10513879;28;20097;-80
2022/06/23 00:46:58;;;;;;;0.65;0.40;;;;;;;15.78;92.20;101248.31;10540428;28;20125;-80
2022/06/23 00:52:15;;;;;;;1.02;0.55;;;;;;;15.71;92.52;101241.31;10540761;28;20106;-80
2022/06/23 00:57:35;;;;;;;11.02;0.40;;;;;;;15.80;90.83;101241.41;10522630;28;20074;-79
2022/06/23 01:02:49;;;;;;;0.55;0.40;;;;;;;15.56;92.73;101244.63;10536339;28;20055;-79
2022/06/23 01:08:03;;;;;;;2.28;0.68;;;;;;;15.36;93.00;101241.81;10540430;28;20448;-79
2022/06/23 01:13:26;;;;;;;1.15;0.60;;;;;;;15.43;93.57;101238.44;10544417;28;20056;-79
2022/06/23 01:19:00;;;;;;;2.28;0.70;;;;;;;15.39;93.18;101242.72;10528157;28;20036;-79
2022/06/23 01:24:41;;;;;;;0.45;0.32;;;;;;;15.44;92.15;101234.97;10533868;28;20036;-79
2022/06/23 01:29:48;;;;;;;0.32;0.32;;;;;;;15.30;93.22;101239.16;10509594;28;20089;-79
2022/06/23 01:35:12;;;;;;;2.35;0.80;;;;;;;15.31;93.15;101230.47;10554559;28;20127;-78
2022/06/23 01:40:26;;;;;;;1.42;0.75;;;;;;;15.32;91.83;101238.31;10532520;28;20377;-79
2022/06/23 01:45:49;;;;;;;0.43;0.43;;;;;;;15.04;93.43;101231.91;10543666;28;20044;-79
2022/06/23 01:50:52;;;;;;;0.30;0.10;;;;;;;15.05;93.54;101231.06;10512332;28;20056;-79
2022/06/23 01:56:06;;;;;;;0.20;0.20;;;;;;;15.12;93.15;101225.09;10527983;28;20391;-79
2022/06/23 02:01:17;;;;;;;0.55;0.32;;;;;;;14.95;94.02;101222.28;10520027;28;20124;-79
2022/06/23 02:06:27;;;;;;;0.95;0.47;;;;;;;14.98;94.17;101221.44;10538509;28;20043;-79
2022/06/23 02:11:38;;;;;;;;;;;;;;;14.84;94.46;101214.38;10528189;28;20551;-79
2022/06/23 02:16:52;;;;;;;0.10;0.10;;;;;;;14.84;93.46;101219.56;10505663;28;19928;-79
2022/06/23 02:22:27;;;;;;;0.77;0.70;;;;;;;14.81;92.94;101214.31;10530323;28;20043;-79
2022/06/23 02:27:40;;;;;;;2.22;0.47;;;;;;;14.77;93.81;101217.72;10519826;28;20064;-78
2022/06/23 02:33:09;;;;;;;1.50;0.65;;;;;;;14.65;94.11;101205.44;10545548;28;20048;-78
2022/06/23 02:38:23;;;;;;;0.85;0.65;;;;;;;14.71;95.23;101191.69;10511757;28;20151;-78
2022/06/23 02:43:33;;;;;;;0.35;0.32;;;;;;;14.53;94.87;101193.16;10528777;28;20051;-79
2022/06/23 02:48:45;;;;;;;0.60;0.37;;;;;;;14.60;94.57;101192.41;10545966;28;20042;-79
2022/06/23 02:54:14;;;;;;;0.47;0.47;;;;;;;14.62;93.44;101201.91;10544471;28;20463;-78
2022/06/23 02:59:21;;;;;;;0.38;0.20;;;;;;;14.38;93.22;101192.94;10545636;28;20048;-79
2022/06/23 03:04:26;;;;;;;2.60;0.88;;;;;;;14.30;95.86;101199.72;10563637;28;20035;-80
2022/06/23 03:09:35;;;;;;;0.65;0.30;;;;;;;14.43;93.82;101197.34;10531649;28;20042;-79
2022/06/23 03:14:42;;;;;;;2.17;0.15;;;;;;;14.28;95.11;101197.97;10524342;28;20044;-78
2022/06/23 03:20:06;;;;;;;0.88;0.50;;;;;;;14.44;94.29;101209.44;10542514;28;20115;-79
2022/06/23 03:25:29;;;;;;;0.10;0.10;;;;;;;14.37;93.58;101212.78;10543309;28;20082;-78
2022/06/23 03:30:41;;;;;;;0.70;0.40;;;;;;;14.40;92.83;101217.16;10540832;28;20615;-78
2022/06/23 03:35:49;;;;;;;1.40;0.88;;;;;;;14.24;94.38;101211.75;10522731;28;20079;-79
2022/06/23 03:46:33;;;;;;;1.33;0.65;;;;;;;14.18;94.18;101211.66;10532118;28;20036;-78
2022/06/23 03:51:49;;;;;;;0.17;0.17;;;;;;;14.57;93.10;101215.66;10542782;28;20072;-79
2022/06/23 03:57:04;;;;;;;2.20;0.80;;;;;;;14.30;95.38;101218.72;10545461;28;20093;-79
2022/06/23 04:02:20;;;;;;;2.85;1.63;;;;;;;14.24;96.34;101211.75;10546164;28;20048;-79
2022/06/23 04:07:28;;;;;;;0.38;0.32;;;;;;;14.59;95.16;101213.13;10577839;28;20036;-78
2022/06/23 04:12:32;;;;;;;3.55;2.28;;;;;;;14.60;93.72;101210.53;10564603;28;20040;-79
2022/06/23 04:17:41;;;;;;;1.85;0.65;;;;;;;14.74;93.66;101199.53;10561448;28;20790;-79
2022/06/23 04:22:52;;;;;;;0.90;0.68;;;;;;;14.99;93.09;101207.63;10554550;28;20040;-78
2022/06/23 04:27:58;;;;;;;0.55;0.55;;;;;;;15.05;91.35;101197.31;10541146;28;20115;-78
2022/06/23 04:33:04;;;;;;;1.75;0.70;;;;;;;15.18;91.07;101193.16;10542623;28;20040;-79
2022/06/23 04:38:17;;;;;;;0.73;0.47;;;;;;;15.36;90.57;101197.69;10541343;28;20044;-80
2022/06/23 04:43:34;;;;;;;2.97;1.17;;;;;;;15.50;89.65;101196.09;10545269;28;20556;-79
2022/06/23 04:48:39;;;;;;;0.75;0.52;;;;;;;15.57;88.91;101199.59;10529298;28;20051;-79
2022/06/23 04:54:02;;;;;;;0.47;0.43;;;;;;;15.78;89.43;101198.94;10539833;28;20085;-80
2022/06/23 04:59:23;;;;;;;0.57;0.38;;;;;;;15.92;88.05;101193.91;10522801;28;20040;-79
2022/06/23 05:04:31;;;;;;;0.57;0.25;;;;;;;16.19;88.17;101192.38;10522611;28;20105;-79
2022/06/23 05:09:42;;;;;;;2.25;0.50;;;;;;;16.12;87.23;101201.00;10522261;28;20105;-79
2022/06/23 05:15:15;;;;;;;0.93;0.47;;;;;;;16.21;86.33;101207.97;10539152;28;20097;-80
2022/06/23 05:20:22;;;;;;;1.35;0.77;;;;;;;16.44;86.38;101206.41;10528599;28;20048;-80
2022/06/23 05:25:32;;;;;;;1.52;1.42;;;;;;;16.44;85.41;101198.63;10548521;28;20085;-80
2022/06/23 05:30:40;;;;;;;1.52;1.05;;;;;;;16.67;84.83;101184.88;10540243;28;20858;-80
2022/06/23 05:35:58;;;;;;;2.15;0.93;;;;;;;17.10;84.69;101192.91;10554274;28;20098;-79
2022/06/23 05:41:16;;;;;;;0.50;0.50;;;;;;;17.25;82.80;101194.69;10526194;28;20472;-80
2022/06/23 05:46:23;;;;;;;1.58;0.90;;;;;;;17.52;82.46;101197.34;10521199;28;20040;-79
2022/06/23 05:51:38;;;;;;;1.58;0.45;;;;;;;17.62;81.48;101199.09;10538424;28;20052;-79
2022/06/23 05:56:56;;;;;;;0.50;0.50;;;;;;;17.85;78.49;101196.53;10538568;28;20055;-78
2022/06/23 06:02:11;;;;;;;0.52;0.43;;;;;;;18.05;78.38;101180.94;10542142;28;20052;-79
2022/06/23 06:07:15;;;;;;;1.35;0.50;;;;;;;18.19;78.21;101190.47;10542584;28;20040;-78
2022/06/23 06:12:24;;;;;;;1.95;1.35;;;;;;;18.55;74.36;101180.81;10533401;28;20092;-80
2022/06/23 06:17:30;;;;;;;2.72;1.27;;;;;;;18.59;73.85;101182.53;10513331;28;20036;-79
2022/06/23 06:23:05;;;;;;;1.17;0.60;;;;;;;18.81;71.82;101180.75;10540929;28;20469;-79
2022/06/23 06:28:19;;;;;;;1.30;0.65;;;;;;;19.13;72.78;101177.16;10539927;28;20044;-78
2022/06/23 06:33:47;;;;;;;1.80;0.65;;;;;;;19.05;69.98;101167.59;10542014;28;20040;-79
2022/06/23 06:38:48;;;;;;;0.30;0.30;;;;;;;19.59;71.06;101165.53;10477185;28;20400;-79
2022/06/23 06:43:51;;;;;;;4.40;0.77;;;;;;;19.93;69.46;101165.28;10541844;28;20101;-79
2022/06/23 06:48:53;;;;;;;2.40;1.00;;;;;;;20.06;67.86;101165.19;10541469;28;20044;-79
2022/06/23 06:54:03;;;;;;;0.80;0.52;;;;;;;20.42;64.06;101169.16;10522875;28;20043;-78
2022/06/23 06:59:11;;;;;;;0.38;0.38;;;;;;;21.16;62.35;101175.28;10525283;28;20040;-79
2022/06/23 07:05:01;;;;;;;0.85;0.63;;;;;;;21.84;58.52;101176.91;10523760;28;20579;-78
2022/06/23 07:10:11;;;;;;;2.25;0.73;;;;;;;22.25;58.00;101161.31;10520032;28;20066;-79
2022/06/23 07:15:24;;;;;;;1.00;0.45;;;;;;;23.00;57.47;101163.34;10532034;28;20062;-79
2022/06/23 07:20:32;;;;;;;0.82;0.52;;;;;;;23.53;55.60;101164.78;10541678;28;20052;-79
2022/06/23 07:25:40;;;;;;;0.35;0.35;;;;;;;23.44;51.82;101164.13;10521669;28;20101;-79
2022/06/23 07:30:57;;;;;;;0.85;0.70;;;;;;;24.17;52.34;101164.06;10526221;28;20048;-80
2022/06/23 07:36:05;;;;;;;0.30;0.30;;;;;;;24.50;49.10;101164.06;10499286;28;20086;-79
2022/06/23 07:41:15;;;;;;;1.17;1.07;;;;;;;24.53;50.22;101156.09;10536152;28;20093;-78
2022/06/23 07:46:17;;;;;;;0.95;0.60;;;;;;;25.46;50.55;101158.59;10525896;28;20032;-79
2022/06/23 07:51:21;;;;;;;0.47;0.30;;;;;;;25.38;44.86;101157.94;10503167;28;20079;-78
2022/06/23 07:56:29;;;;;;;0.28;0.20;;;;;;;25.52;46.09;101150.47;10548489;28;20479;-79
2022/06/23 08:01:38;;;;;;;0.40;0.20;;;;;;;25.95;46.05;101142.91;10532873;28;20105;-79
2022/06/23 08:06:41;;;;;;;0.73;0.25;;;;;;;26.98;46.74;101134.78;10540070;28;20101;-79
2022/06/23 08:17:15;;;;;;;0.40;0.38;;;;;;;27.48;44.75;101131.91;10531573;28;20039;-80
2022/06/23 08:22:34;;;;;;;3.60;0.47;;;;;;;27.42;44.11;101137.47;10528721;28;20532;-79
2022/06/23 08:27:42;;;;;;;0.55;0.55;;;;;;;26.78;43.55;101120.56;10540353;28;20491;-79
2022/06/23 08:32:48;;;;;;;0.20;0.20;;;;;;;27.89;43.46;101117.84;10543176;28;20147;-80
2022/06/23 08:37:59;;;;;;;0.38;0.30;;;;;;;27.60;42.41;101113.78;10546889;28;20032;-79
2022/06/23 08:43:06;;;;;;;1.67;0.65;;;;;;;27.97;41.42;101105.13;10533113;28;20055;-80
2022/06/23 08:48:22;;;;;;;0.10;0.10;;;;;;;28.68;45.06;101108.16;10550738;28;20043;-80
2022/06/23 08:53:35;;;;;;;0.40;0.20;;;;;;;28.67;41.06;101104.66;10546252;28;20044;-78
2022/06/23 08:58:49;;;;;;;0.20;0.20;;;;;;;29.32;41.13;101106.88;10533637;28;20044;-79
2022/06/23 09:04:04;;;;;;;2.17;0.50;;;;;;;28.76;40.21;101103.38;10543463;28;20039;-78
2022/06/23 09:09:14;;;;;;;0.40;0.10;;;;;;;29.21;42.01;101103.88;10542072;28;20040;-78
2022/06/23 09:14:22;;;;;;;0.30;0.30;;;;;;;29.13;41.17;101102.47;10543519;28;20065;-79
2022/06/23 09:19:46;;;;;;;0.40;0.38;;;;;;;29.53;40.07;101098.75;10527791;28;20085;-79
2022/06/23 09:25:18;;;;;;;0.35;0.30;;;;;;;29.59;41.06;101103.78;10535739;28;20036;-79
2022/06/23 09:30:45;;;;;;;0.28;0.17;;;;;;;29.13;41.58;101097.16;10538060;28;20044;-79
2022/06/23 09:36:21;;;;;;;0.10;0.10;;;;;;;29.97;39.72;101087.69;10541152;28;20488;-79
2022/06/23 09:41:35;;;;;;;0.52;0.52;;;;;;;30.20;41.74;101093.53;10531805;28;20046;-79
2022/06/23 09:46:42;;;;;;;0.50;0.45;;;;;;;30.22;39.03;101094.31;10525594;28;20044;-77
2022/06/23 09:52:10;;;;;;;1.73;0.67;;;;;;;30.32;39.27;101086.69;10509728;28;20454;-77
2022/06/23 09:57:22;;;;;;;0.93;0.57;;;;;;;29.50;39.99;101093.63;10523331;28;20293;-78
2022/06/23 10:02:47;;;;;;;0.25;0.25;;;;;;;30.38;39.44;101081.06;10531794;28;20066;-78
2022/06/23 10:07:58;;;;;;;0.38;0.38;;;;;;;30.38;39.25;101081.91;10511847;28;20582;-78
2022/06/23 10:13:41;;;;;;;0.20;0.20;;;;;;;29.99;40.23;101077.81;10538504;28;20094;-78
2022/06/23 10:18:56;;;;;;;0.50;0.43;;;;;;;30.15;40.27;101074.34;10476433;28;20495;-79
2022/06/23 10:24:30;;;;;;;1.33;0.75;;;;;;;30.75;37.22;101067.53;10514817;28;20417;-79
2022/06/23 10:29:57;;;;;;;0.75;0.50;;;;;;;31.06;37.77;101060.44;10533719;28;20280;-80
2022/06/23 10:35:17;;;;;;;1.38;0.63;;;;;;;30.66;36.82;101061.78;10520567;28;20048;-78
2022/06/23 10:40:49;;;;;;;0.20;0.20;;;;;;;30.82;37.80;101047.63;10537688;28;20043;-79
2022/06/23 10:45:56;;;;;;;2.25;1.25;;;;;;;31.58;36.39;101036.09;10538643;28;20032;-78
2022/06/23 10:51:19;;;;;;;1.27;0.60;;;;;;;31.51;36.20;101037.41;10514731;28;20479;-78
2022/06/23 10:56:36;;;;;;;0.55;0.43;;;;;;;30.90;36.28;101029.41;10545310;28;20327;-78
2022/06/23 11:02:07;;;;;;;0.30;0.30;;;;;;;31.85;38.20;101022.03;10546261;28;20043;-78
2022/06/23 11:07:17;;;;;;;2.42;0.55;;;;;;;32.14;35.68;101008.69;10545218;28;20525;-78
2022/06/23 11:12:48;;;;;;;0.57;0.50;;;;;;;31.77;38.73;101000.34;10530248;28;20093;-80
2022/06/23 11:17:55;;;;;;;0.95;0.60;;;;;;;31.43;36.35;101010.41;10517944;28;20044;-79
2022/06/23 11:23:05;;;;;;;0.63;0.43;;;;;;;32.40;36.31;101008.88;10534685;28;20295;-79
2022/06/23 11:28:24;;;;;;;0.50;0.40;;;;;;;31.81;35.32;100999.22;10542292;28;20032;-79
2022/06/23 11:33:42;;;;;;;0.38;0.38;;;;;;;30.90;37.11;101002.81;10546227;28;20050;-81
2022/06/23 11:39:02;;;;;;;0.50;0.32;;;;;;;32.28;33.19;100992.69;10517502;28;20044;-79
2022/06/23 11:44:12;;;;;;;9.68;1.23;;;;;;;32.10;35.80;100993.84;10522448;28;20109;-77
2022/06/23 11:49:24;;;;;;;1.42;1.00;;;;;;;30.99;37.04;100980.13;10544158;28;20071;-79
2022/06/23 11:54:45;;;;;;;0.38;0.35;;;;;;;31.14;34.75;100978.41;10527415;28;20453;-78
2022/06/23 12:00:02;;;;;;;0.45;0.40;;;;;;;31.24;34.04;100976.88;10517969;28;20052;-81
2022/06/23 12:05:31;;;;;;;3.92;0.73;;;;;;;31.95;31.21;100969.03;10523648;28;20063;-79
2022/06/23 12:10:35;;;;;;;2.90;0.63;;;;;;;31.68;31.37;100971.66;10543849;28;20044;-80
2022/06/23 12:15:48;;;;;;;7.13;0.95;;;;;;;31.84;30.98;100961.72;10544932;28;20052;-79
2022/06/23 12:21:02;;;;;;;0.30;0.20;;;;;;;32.05;31.07;100966.66;10525268;28;20052;-78
2022/06/23 12:26:28;;;;;;;0.50;0.30;;;;;;;32.50;30.51;100964.66;10537897;28;20044;-79
2022/06/23 12:31:39;;;;;;;0.10;0.10;;;;;;;32.11;32.17;100960.94;10520212;28;20066;-78
2022/06/23 12:36:59;;;;;;;0.30;0.30;;;;;;;31.79;31.28;100958.50;10510526;28;20044;-79
2022/06/23 12:42:08;;;;;;;0.45;0.45;;;;;;;32.59;31.05;100948.03;10529481;28;20052;-81
2022/06/23 12:47:22;;;;;;;1.27;0.40;;;;;;;32.61;28.48;100939.06;10543333;28;20044;-79
2022/06/23 12:52:51;;;;;;;0.52;0.38;;;;;;;32.18;31.80;100943.59;10522388;28;20047;-80
2022/06/23 12:58:15;;;;;;;0.20;0.20;;;;;;;32.33;30.83;100925.75;10508814;28;20046;-80
2022/06/23 13:03:24;;;;;;;1.88;0.95;;;;;;;31.95;30.59;100935.28;10508989;28;20056;-79
2022/06/23 13:08:37;;;;;;;0.40;0.20;;;;;;;31.76;30.71;100921.44;10502544;28;20540;-79
2022/06/23 13:13:54;;;;;;;1.23;0.60;;;;;;;31.64;31.94;100921.19;10529205;28;20039;-80
2022/06/23 13:19:20;;;;;;;0.20;0.13;;;;;;;31.47;32.00;100916.94;10491830;28;20039;-80
2022/06/23 13:24:22;;;;;;;0.50;0.50;;;;;;;32.28;32.76;100907.41;10519985;28;20044;-80
2022/06/23 13:29:39;;;;;;;0.30;0.30;;;;;;;32.51;30.80;100901.50;10524366;28;20044;-80
2022/06/23 13:34:57;;;;;;;0.55;0.30;;;;;;;32.16;30.34;100896.69;10529222;28;20109;-80
2022/06/23 13:40:05;;;;;;;1.17;0.80;;;;;;;31.82;33.02;100894.41;10517024;28;20044;-81
2022/06/23 13:45:43;;;;;;;0.45;0.45;;;;;;;32.25;31.80;100888.09;10529856;28;20043;-80
2022/06/23 13:50:54;;;;;;;0.40;0.40;;;;;;;31.67;33.10;100884.72;10513121;28;20040;-81
2022/06/23 13:56:45;;;;;;;0.30;0.30;;;;;;;31.83;32.43;100885.44;10528022;28;20048;-81
2022/06/23 14:02:14;;;;;;;0.95;0.32;;;;;;;32.39;30.81;100876.50;10499488;28;20137;-80
2022/06/23 14:07:35;;;;;;;0.13;0.13;;;;;;;32.10;33.20;100876.59;10449778;28;20052;-82
2022/06/23 14:12:54;;;;;;;0.15;0.10;;;;;;;32.24;31.54;100873.91;10504463;28;20083;-81
2022/06/23 14:18:04;;;;;;;0.60;0.43;;;;;;;32.67;32.61;100861.31;10521483;28;20048;-81
2022/06/23 14:23:12;;;;;;;0.30;0.30;;;;;;;32.45;33.51;100862.75;10508214;28;20044;-80
2022/06/23 14:28:22;;;;;;;;;;;;;;;32.32;31.13;100848.56;10512147;28;20403;-81
2022/06/23 14:33:32;;;;;;;0.57;0.50;;;;;;;32.14;34.28;100840.78;10532684;28;20392;-81
2022/06/23 14:38:48;;;;;;;0.57;0.50;;;;;;;31.90;31.75;100835.28;10535476;28;20048;-82
2022/06/23 14:44:30;;;;;;;0.25;0.15;;;;;;;32.42;34.54;100823.00;10520169;28;20048;-81
2022/06/23 14:49:37;;;;;;;0.90;0.63;;;;;;;32.19;33.48;100803.19;10523241;28;20384;-81
2022/06/23 14:54:54;;;;;;;1.17;0.60;;;;;;;31.97;30.97;100812.59;10527611;28;20553;-80
2022/06/23 15:00:14;;;;;;;0.70;0.40;;;;;;;32.21;32.96;100802.16;10513931;28;20055;-80
2022/06/23 15:05:55;;;;;;;1.00;0.85;;;;;;;32.14;32.52;100792.81;10525991;28;20040;-80
2022/06/23 15:11:26;;;;;;;0.40;0.30;;;;;;;32.38;32.09;100792.16;10533006;28;20056;-80
2022/06/23 15:16:46;;;;;;;0.10;0.10;;;;;;;32.15;31.85;100788.38;10532060;28;20056;-80
2022/06/23 15:27:45;;;;;;;0.40;0.40;;;;;;;32.25;31.56;100785.00;10522158;28;20047;-80
2022/06/23 15:32:59;;;;;;;0.40;0.40;;;;;;;32.43;33.27;100793.56;10502926;28;20496;-79
2022/06/23 15:38:24;;;;;;;0.13;0.13;;;;;;;32.42;34.10;100785.69;10522741;28;20032;-79
2022/06/23 15:43:40;;;;;;;2.47;0.30;;;;;;;32.37;32.90;100777.13;10519442;28;20050;-80
2022/06/23 15:49:09;;;;;;;0.60;0.38;;;;;;;32.21;31.89;100771.97;10531925;28;20040;-78
2022/06/23 15:54:30;;;;;;;0.45;0.40;;;;;;;31.81;34.51;100772.81;10523629;28;20071;-80
2022/06/23 16:00:07;;;;;;;0.47;0.43;;;;;;;32.01;34.37;100760.84;10527129;28;20045;-79
2022/06/23 16:05:16;;;;;;;1.25;0.57;;;;;;;32.10;32.33;100756.69;10537818;28;20062;-79
2022/06/23 16:10:36;;;;;;;0.43;0.13;;;;;;;31.90;32.19;100756.22;10548550;28;20036;-79
2022/06/23 16:15:40;;;;;;;3.58;0.80;;;;;;;31.98;31.02;100755.72;10550417;28;20089;-79
2022/06/23 16:20:55;;;;;;;4.03;1.10;;;;;;;31.76;30.72;100756.31;10513464;28;20449;-80
2022/06/23 16:26:03;;;;;;;0.25;0.25;;;;;;;31.63;32.02;100750.88;10541107;28;20041;-80
2022/06/23 16:31:18;;;;;;;;;;;;;;;31.09;35.38;100752.53;10540723;28;20048;-79
2022/06/23 16:36:29;;;;;;;0.20;0.20;;;;;;;31.43;37.55;100754.84;10518429;28;20302;-80
2022/06/23 16:41:55;;;;;;;4.13;0.50;;;;;;;31.61;37.59;100758.94;10537037;28;20488;-79
2022/06/23 16:47:00;;;;;;;0.63;0.20;;;;;;;31.85;37.68;100738.84;10536731;28;20502;-79
2022/06/23 16:52:38;;;;;;;3.85;0.38;;;;;;;31.94;36.66;100728.41;10544023;28;20471;-79
2022/06/23 16:57:47;;;;;;;0.08;0.08;;;;;;;31.98;39.63;100713.09;10536024;28;20043;-79
2022/06/23 17:02:58;;;;;;;0.98;0.45;;;;;;;32.08;38.23;100707.97;10509723;28;20048;-79
2022/06/23 17:08:16;;;;;;;0.28;0.28;;;;;;;31.67;37.52;100708.97;10536588;28;20272;-79
2022/06/23 17:13:21;;;;;;;0.25;0.05;;;;;;;31.14;41.09;100712.34;10551591;28;20044;-79
2022/06/23 17:18:42;;;;;;;0.08;0.08;;;;;;;30.95;45.27;100708.13;10539359;28;20043;-79
2022/06/23 17:23:48;;;;;;;0.52;0.30;;;;;;;30.44;44.16;100723.69;10538028;28;20056;-77
2022/06/23 17:29:08;;;;;;;1.95;0.20;;;;;;;29.96;47.55;100713.25;10539448;28;20483;-78
2022/06/23 17:34:20;;;;;;;0.70;0.40;;;;;;;29.93;47.01;100730.22;10496188;28;20048;-78
2022/06/23 17:45:42;;;;;;;1.73;0.57;;;;;;;28.68;50.08;100729.09;10541358;28;20101;-79
2022/06/23 17:51:12;;;;;;;1.08;0.25;;;;;;;28.32;51.84;100730.97;10508694;28;20494;-78
2022/06/23 17:56:16;;;;;;;0.15;0.10;;;;;;;28.19;52.75;100738.69;10514650;28;20040;-79
2022/06/23 18:01:19;;;;;;;0.55;0.45;;;;;;;27.99;53.33;100732.56;10524582;28;20047;-79
2022/06/23 18:06:27;;;;;;;0.32;0.32;;;;;;;28.12;52.57;100738.13;10521858;28;20044;-78
2022/06/23 18:11:37;;;;;;;0.25;0.03;;;;;;;28.10;51.88;100733.84;10540105;28;20101;-79
2022/06/23 18:16:55;;;;;;;0.10;0.10;;;;;;;28.05;55.51;100726.09;10527534;28;20577;-78
2022/06/23 18:22:07;;;;;;;0.20;0.10;;;;;;;27.96;56.90;100726.56;10511810;28;20105;-79
2022/06/23 18:27:25;;;;;;;0.00;0.00;;;;;;;27.79;57.07;100725.63;10519588;28;20407;-78
2022/06/23 18:32:48;;;;;;;0.10;0.10;;;;;;;27.20;59.45;100728.41;10523124;28;20465;-79
2022/06/23 18:38:06;;;;;;;0.10;0.00;;;;;;;26.95;64.42;100727.78;10534826;28;20442;-79
2022/06/23 18:43:20;;;;;;;0.30;0.30;;;;;;;26.74;65.41;100725.16;10527269;28;20055;-78
2022/06/23 18:48:27;;;;;;;0.22;0.10;;;;;;;26.85;64.75;100727.38;10536932;28;20051;-79
2022/06/23 18:53:41;;;;;;;0.30;0.20;;;;;;;26.04;68.21;100720.22;10537966;28;20488;-79
2022/06/23 18:58:53;;;;;;;0.85;0.30;;;;;;;26.26;67.43;100719.34;10537671;28;20036;-78
2022/06/23 19:04:09;;;;;;;0.10;0.10;;;;;;;26.29;64.86;100722.69;10537155;28;20050;-79
2022/06/23 19:09:22;;;;;;;0.00;0.00;;;;;;;25.71;66.46;100722.47;10519531;28;20299;-79
2022/06/23 19:14:40;;;;;;;0.70;0.40;;;;;;;25.52;66.30;100723.19;10546393;28;20556;-78
2022/06/23 19:19:59;;;;;;;0.13;0.13;;;;;;;25.37;67.25;100723.75;10546027;28;20044;-78
2022/06/23 19:25:21;;;;;;;0.43;0.20;;;;;;;25.57;64.39;100731.78;10545951;28;20183;-79
2022/06/23 19:30:34;;;;;;;1.00;0.47;;;;;;;25.86;62.91;100728.88;10526881;28;20552;-78
2022/06/23 19:36:00;;;;;;;0.30;0.20;;;;;;;25.96;62.77;100727.59;10526341;28;20040;-78
2022/06/23 19:41:31;;;;;;;0.00;0.00;;;;;;;25.84;63.24;100728.94;10531474;28;20093;-79
2022/06/23 19:46:39;;;;;;;0.13;0.13;;;;;;;25.85;66.15;100735.94;10534493;28;20109;-77
2022/06/23 19:51:48;;;;;;;1.02;0.52;;;;;;;25.16;67.63;100784.28;10546326;28;20048;-79
2022/06/23 19:56:54;;;;;;;1.13;0.60;;;;;;;25.45;60.97;100774.44;10547496;28;20043;-79
2022/06/23 20:02:24;;;;;;;0.47;0.32;;;;;;;25.49;59.21;100778.72;10528500;28;20085;-79
2022/06/23 20:07:31;;;;;;;0.20;0.13;;;;;;;25.26;60.75;100783.06;10553407;28;20067;-78
2022/06/23 20:12:37;;;;;;;0.22;0.22;;;;;;;25.19;61.03;100777.13;10537372;28;20127;-79
2022/06/23 20:17:53;;;;;;;0.47;0.30;;;;;;;24.80;63.37;100766.28;10516088;28;20093;-79
2022/06/23 20:23:27;;;;;;;1.15;0.95;;;;;;;24.50;64.88;100763.78;10549258;28;20047;-78
2022/06/23 20:28:58;;;;;;;0.28;0.22;;;;;;;24.12;67.63;100760.66;10540211;28;20081;-79
2022/06/23 20:34:32;;;;;;;0.55;0.35;;;;;;;24.12;69.18;100758.91;10526699;28;20438;-78
2022/06/23 20:39:59;;;;;;;0.35;0.30;;;;;;;23.97;69.46;100755.00;10529601;28;20044;-79
2022/06/23 20:45:26;;;;;;;1.30;0.73;;;;;;;24.10;69.45;100754.59;10540298;28;20399;-78
2022/06/23 20:51:00;;;;;;;0.10;0.10;;;;;;;23.94;71.40;100755.09;10542789;28;20043;-80
2022/06/23 20:56:17;;;;;;;0.38;0.30;;;;;;;23.47;73.89;100760.91;10491174;28;20059;-80
2022/06/23 21:01:40;;;;;;;0.00;0.00;;;;;;;23.29;75.46;100757.94;10505845;28;20070;-80
2022/06/23 21:06:53;;;;;;;0.80;0.40;;;;;;;23.21;77.31;100748.53;10538093;28;20075;-80
2022/06/23 21:12:13;;;;;;;0.50;0.30;;;;;;;23.48;75.97;100757.38;10530921;28;20044;-80
2022/06/23 21:17:40;;;;;;;0.55;0.30;;;;;;;23.25;77.16;100752.81;10558730;28;20108;-80
2022/06/23 21:23:11;;;;;;;0.52;0.30;;;;;;;22.66;80.51;100742.16;10541649;28;20047;-75
2022/06/23 21:28:41;;;;;;;0.68;0.60;;;;;;;22.68;81.30;100731.59;10534185;28;20087;-74
2022/06/23 21:33:51;;;;;;;0.65;0.30;;;;;;;22.90;79.43;100734.50;10527693;28;20044;-76
2022/06/23 21:39:06;;;;;;;0.20;0.20;;;;;;;22.68;80.58;100728.13;10528970;28;20093;-75
2022/06/23 21:44:37;;;;;;;0.77;0.60;;;;;;;22.29;83.68;100722.09;10530487;28;20093;-76
2022/06/23 21:50:05;;;;;;;0.22;0.22;;;;;;;22.13;84.07;100713.75;10535667;28;20152;-76
2022/06/23 21:55:20;;;;;;;0.43;0.40;;;;;;;21.83;86.96;100708.38;10527445;28;20036;-76
2022/06/23 22:00:26;;;;;;;0.57;0.43;;;;;;;21.97;86.29;100691.44;10531009;28;20043;-76
2022/06/23 22:05:31;;;;;;;0.85;0.50;;;;;;;22.21;83.82;100689.94;10537662;28;20059;-76
2022/06/23 22:10:33;;;;;;;2.03;0.50;;;;;;;22.17;83.51;100697.03;10552960;28;20054;-76
2022/06/23 22:16:00;;;;;;;0.88;0.40;;;;;;;22.05;83.27;100685.97;10555643;28;20040;-76
2022/06/23 22:21:15;;;;;;;0.50;0.28;;;;;;;21.90;84.88;100679.38;10534798;28;20089;-74
2022/06/23 22:26:35;;;;;;;1.05;0.28;;;;;;;21.53;87.37;100674.09;10533677;28;20509;-74
2022/06/23 22:32:02;;;;;;;0.73;0.35;;;;;;;21.63;86.51;100656.41;10548707;28;20452;-74
2022/06/23 22:37:13;;;;;;;0.57;0.28;;;;;;;21.86;84.48;100645.34;10523188;28;20044;-74
2022/06/23 22:42:27;;;;;;;1.02;0.50;;;;;;;21.91;84.36;100641.75;10529578;28;20491;-75
2022/06/23 22:47:38;;;;;;;0.52;0.43;;;;;;;21.74;84.59;100629.94;10521000;28;20048;-75
2022/06/23 22:52:43;;;;;;;0.80;0.57;;;;;;;21.71;84.45;100632.59;10507634;28;20571;-75
2022/06/23 22:57:48;;;;;;;0.35;0.35;;;;;;;21.80;84.75;100629.75;10507482;28;20043;-74
2022/06/23 23:02:57;;;;;;;0.40;0.40;;;;;;;21.73;84.88;100638.69;10541522;28;20052;-75
2022/06/23 23:08:13;;;;;;;1.35;0.63;;;;;;;21.81;84.12;100639.34;10523147;28;20056;-75
2022/06/23 23:13:20;;;;;;;0.30;0.20;;;;;;;21.94;83.33;100631.16;10546768;28;20072;-74
2022/06/23 23:18:37;;;;;;;0.75;0.57;;;;;;;21.73;84.80;100619.50;10535814;28;20135;-74
2022/06/23 23:24:10;;;;;;;0.57;0.57;;;;;;;21.64;84.01;100607.44;10507002;28;20451;-74
2022/06/23 23:29:23;;;;;;;0.75;0.50;;;;;;;21.74;82.60;100598.47;10498480;28;20527;-74
2022/06/23 23:34:32;;;;;;;0.60;0.40;;;;;;;21.87;81.28;100602.47;10540707;28;20044;-75
2022/06/23 23:40:09;;;;;;;1.08;0.80;;;;;;;21.74;81.51;100603.72;10540431;28;20052;-75
2022/06/23 23:45:11;;;;;;;2.70;0.95;;;;;;;21.86;80.82;100608.63;10530824;28;20051;-74
2022/06/23 23:50:24;;;;;;;0.30;0.13;;;;;;;22.02;79.12;100650.19;10539539;28;20139;-74
2022/06/23 23:55:32;;;;;;;0.68;0.68;;;;;;;21.81;85.34;100634.13;10539640;28;20445;-74
